Time;durP1;ratioP1;P1;durP2;ratioP2;P2;SDS_P1;SDS_P2;PMS_P1;PMS_P2;Temp;Humidity;BMP_temperature;BMP_pressure;BME280_temperature;BME280_humidity;BME280_pressure;Samples;Min_cycle;Max_cycle;Signal;HPM_P1;HPM_P2
2023/04/16 00:01:08;;;;;;;;;21.25;19.25;;;;;5.28;100.00;98041.91;4849379;28;106135;-72
2023/04/16 00:03:35;;;;;;;;;24.00;20.25;;;;;5.28;100.00;98045.44;4846793;28;102090;-73
2023/04/16 00:06:13;;;;;;;;;17.25;15.75;;;;;5.30;100.00;98035.38;4852109;28;103329;-72
2023/04/16 00:08:56;;;;;;;;;15.25;13.75;;;;;5.32;100.00;98037.84;4847439;28;101724;-72
2023/04/16 00:11:46;;;;;;;;;12.00;10.50;;;;;5.32;100.00;98027.13;4840102;28;101545;-72
2023/04/16 00:14:35;;;;;;;;;11.25;8.75;;;;;5.32;100.00;98040.53;4851368;28;101674;-72
2023/04/16 00:17:20;;;;;;;;;14.50;13.00;;;;;5.28;100.00;98036.56;4847224;28;107111;-72
2023/04/16 00:20:10;;;;;;;;;10.50;8.25;;;;;5.20;100.00;98040.16;4843095;28;102642;-72
2023/04/16 00:22:52;;;;;;;;;11.75;7.75;;;;;5.18;100.00;98036.81;4847134;28;101716;-73
2023/04/16 00:25:29;;;;;;;;;12.75;8.00;;;;;5.12;100.00;98042.06;4853611;28;101619;-72
2023/04/16 00:27:56;;;;;;;;;8.50;6.50;;;;;5.07;100.00;98044.44;4854517;28;103380;-72
2023/04/16 00:30:23;;;;;;;;;7.00;6.50;;;;;4.98;100.00;98038.34;4847445;28;102778;-72
2023/04/16 00:32:49;;;;;;;;;8.75;8.00;;;;;4.96;100.00;98043.03;4846687;28;101654;-71
2023/04/16 00:35:17;;;;;;;;;6.25;6.25;;;;;4.92;100.00;98041.72;4853496;28;101807;-72
2023/04/16 00:37:44;;;;;;;;;4.00;4.00;;;;;4.91;100.00;98040.03;4851140;28;103315;-72
2023/04/16 00:40:11;;;;;;;;;7.00;7.00;;;;;4.87;100.00;98036.06;4851393;28;101627;-71
2023/04/16 00:42:38;;;;;;;;;6.75;6.00;;;;;4.87;100.00;98041.41;4843917;28;101873;-71
2023/04/16 00:45:05;;;;;;;;;6.00;6.00;;;;;4.85;100.00;98048.81;4852418;28;103081;-72
2023/04/16 00:47:32;;;;;;;;;9.25;7.50;;;;;4.82;100.00;98062.53;4852473;28;103530;-72
2023/04/16 00:50:01;;;;;;;;;13.50;12.25;;;;;4.82;100.00;98060.69;4850419;28;102189;-72
2023/04/16 00:52:28;;;;;;;;;8.50;8.50;;;;;4.82;100.00;98062.53;4841931;28;101529;-72
2023/04/16 00:54:56;;;;;;;;;5.50;5.50;;;;;4.82;100.00;98057.19;4851078;28;101735;-72
2023/04/16 00:57:23;;;;;;;;;10.25;8.00;;;;;4.78;100.00;98067.41;4852227;28;103472;-72
2023/04/16 00:59:50;;;;;;;;;3.75;2.50;;;;;4.75;100.00;98056.25;4851840;28;102412;-72
2023/04/16 01:02:17;;;;;;;;;4.75;3.50;;;;;4.71;100.00;98071.84;4845933;28;101492;-72
2023/04/16 01:04:46;;;;;;;;;6.50;6.00;;;;;4.66;100.00;98068.00;4849583;28;102079;-72
2023/04/16 01:07:29;;;;;;;;;3.00;3.00;;;;;4.61;100.00;98068.53;4849321;28;102392;-73
2023/04/16 01:10:15;;;;;;;;;8.50;6.00;;;;;4.21;100.00;98010.72;4852089;28;106015;-72
2023/04/16 01:12:54;;;;;;;;;6.00;5.00;;;;;4.54;100.00;98069.44;4845702;28;101551;-72
2023/04/16 01:15:44;;;;;;;;;8.25;6.25;;;;;4.47;100.00;98067.44;4850359;28;101965;-71
2023/04/16 01:18:31;;;;;;;;;12.00;9.00;;;;;4.50;100.00;98075.13;4849885;28;103406;-72
2023/04/16 01:21:17;;;;;;;;;12.25;12.00;;;;;4.49;100.00;98072.63;4849373;28;102171;-72
2023/04/16 01:23:52;;;;;;;;;5.00;4.75;;;;;4.53;100.00;98073.94;4847159;28;101941;-72
2023/04/16 01:26:19;;;;;;;;;9.25;8.25;;;;;4.49;100.00;98068.13;4851484;28;102281;-72
2023/04/16 01:28:46;;;;;;;;;7.75;7.00;;;;;4.47;100.00;98070.13;4853108;28;103350;-72
2023/04/16 01:31:13;;;;;;;;;10.25;7.75;;;;;4.42;100.00;98072.50;4850900;28;102380;-72
2023/04/16 01:33:40;;;;;;;;;7.50;6.00;;;;;4.42;100.00;98077.84;4838674;28;103115;-72
2023/04/16 01:36:07;;;;;;;;;6.25;6.00;;;;;4.33;100.00;98062.84;4854976;28;101852;-72
2023/04/16 01:38:34;;;;;;;;;10.75;7.75;;;;;4.40;100.00;98082.56;4848201;28;103301;-72
2023/04/16 01:41:01;;;;;;;;;6.00;5.75;;;;;4.42;100.00;98083.19;4854461;28;101483;-72
2023/04/16 01:43:28;;;;;;;;;6.50;5.25;;;;;4.40;100.00;98089.75;4847466;28;101634;-72
2023/04/16 01:46:12;;;;;;;;;5.50;5.50;;;;;4.40;100.00;98095.09;4850617;28;101929;-72
2023/04/16 01:48:39;;;;;;;;;7.50;7.00;;;;;4.41;100.00;98092.22;4845883;28;108536;-72
2023/04/16 01:51:08;;;;;;;;;7.00;7.00;;;;;4.38;100.00;98092.59;4851894;28;101889;-72
2023/04/16 01:53:36;;;;;;;;;5.50;3.50;;;;;4.42;100.00;98093.06;4850696;28;101704;-72
2023/04/16 01:56:03;;;;;;;;;10.00;10.00;;;;;4.42;100.00;98093.06;4848554;28;101650;-72
2023/04/16 01:58:32;;;;;;;;;7.75;7.75;;;;;4.31;100.00;98077.41;4849654;28;107866;-73
2023/04/16 02:00:59;;;;;;;;;11.00;10.75;;;;;4.42;100.00;98093.06;4849856;28;101459;-72
2023/04/16 02:03:27;;;;;;;;;7.00;7.00;;;;;4.39;100.00;98101.44;4849458;28;101786;-72
2023/04/16 02:05:54;;;;;;;;;21.75;15.00;;;;;4.33;100.00;98096.78;4848094;28;107235;-71
2023/04/16 02:08:21;;;;;;;;;25.75;21.00;;;;;4.30;100.00;98092.63;4850266;28;103475;-71
2023/04/16 02:10:49;;;;;;;;;10.00;8.00;;;;;4.32;100.00;98093.28;4850827;28;101966;-72
2023/04/16 02:13:16;;;;;;;;;13.50;13.25;;;;;4.32;100.00;98095.94;4851976;28;101727;-72
2023/04/16 02:15:49;;;;;;;;;14.00;12.00;;;;;4.32;100.00;98095.94;4853555;28;101594;-72
2023/04/16 02:18:17;;;;;;;;;15.00;12.00;;;;;4.31;100.00;98102.34;4850265;28;103453;-72
2023/04/16 02:20:45;;;;;;;;;12.75;9.25;;;;;4.28;100.00;98108.00;4850585;28;105617;-72
2023/04/16 02:23:15;;;;;;;;;11.75;9.75;;;;;4.16;100.00;98082.66;4849754;28;102061;-72
2023/04/16 02:25:46;;;;;;;;;23.50;18.75;;;;;4.22;100.00;98100.69;4849986;28;101731;-72
2023/04/16 02:28:16;;;;;;;;;21.75;18.00;;;;;4.25;100.00;98108.38;4848253;28;103344;-72
2023/04/16 02:30:43;;;;;;;;;16.75;12.50;;;;;4.25;100.00;98100.34;4848856;28;101599;-72
2023/04/16 02:33:11;;;;;;;;;17.50;15.25;;;;;4.27;100.00;98108.22;4848015;28;101861;-72
2023/04/16 02:35:39;;;;;;;;;16.50;14.50;;;;;4.25;100.00;98103.03;4851281;28;101629;-72
2023/04/16 02:38:06;;;;;;;;;14.50;14.00;;;;;4.29;100.00;98101.66;4848139;28;103009;-72
2023/04/16 02:40:34;;;;;;;;;15.75;11.50;;;;;4.21;100.00;98092.84;4850706;28;101626;-72
2023/04/16 02:43:01;;;;;;;;;15.25;12.00;;;;;4.27;100.00;98105.53;4852238;28;101560;-72
2023/04/16 02:45:30;;;;;;;;;8.00;6.75;;;;;4.22;100.00;98114.06;4854610;28;101686;-72
2023/04/16 02:47:57;;;;;;;;;14.25;12.25;;;;;4.08;100.00;98117.47;4843941;28;103433;-72
2023/04/16 02:50:24;;;;;;;;;31.50;27.75;;;;;3.98;100.00;98119.50;4850199;28;106030;-71
2023/04/16 02:52:51;;;;;;;;;15.25;9.00;;;;;3.94;100.00;98127.03;4848298;28;102403;-72
2023/04/16 02:55:18;;;;;;;;;31.75;23.75;;;;;3.98;100.00;98116.81;4852806;28;101922;-72
2023/04/16 02:57:45;;;;;;;;;25.00;20.50;;;;;4.04;100.00;98124.16;4844717;28;103465;-72
2023/04/16 03:00:12;;;;;;;;;14.50;12.50;;;;;4.05;100.00;98118.63;4848060;28;101668;-72
2023/04/16 03:02:39;;;;;;;;;10.50;10.50;;;;;4.04;100.00;98122.34;4848471;28;102593;-72
2023/04/16 03:05:07;;;;;;;;;4.50;3.00;;;;;4.02;100.00;98118.97;4854789;28;101862;-72
2023/04/16 03:07:34;;;;;;;;;7.50;6.25;;;;;3.96;100.00;98121.53;4847076;28;103276;-71
2023/04/16 03:10:01;;;;;;;;;8.50;8.00;;;;;3.93;100.00;98132.53;4846031;28;101634;-72
2023/04/16 03:12:28;;;;;;;;;8.00;6.50;;;;;3.93;100.00;98132.53;4850712;28;101480;-72
2023/04/16 03:14:55;;;;;;;;;11.75;8.00;;;;;3.90;100.00;98143.59;4853445;28;102519;-71
2023/04/16 03:17:22;;;;;;;;;11.25;6.50;;;;;3.92;100.00;98152.25;4846146;28;103420;-71
2023/04/16 03:19:49;;;;;;;;;12.50;9.00;;;;;3.89;100.00;98150.78;4845663;28;101850;-71
2023/04/16 03:22:16;;;;;;;;;3.00;3.00;;;;;3.93;100.00;98157.44;4849636;28;101574;-72
2023/04/16 03:24:43;;;;;;;;;5.00;3.00;;;;;4.00;100.00;98173.66;4850663;28;101789;-71
2023/04/16 03:27:10;;;;;;;;;3.50;3.50;;;;;4.03;100.00;98162.63;4853007;28;103492;-72
2023/04/16 03:29:37;;;;;;;;;10.25;8.00;;;;;4.12;100.00;98166.09;4845956;28;101580;-72
2023/04/16 03:32:04;;;;;;;;;6.00;6.00;;;;;4.15;100.00;98161.25;4853903;28;101570;-71
2023/04/16 03:34:31;;;;;;;;;4.50;4.00;;;;;4.20;100.00;98169.59;4850150;28;102186;-72
2023/04/16 03:36:59;;;;;;;;;3.00;3.00;;;;;4.25;100.00;98177.94;4849243;28;103452;-71
2023/04/16 03:39:26;;;;;;;;;3.00;2.00;;;;;4.28;100.00;98177.59;4848133;28;101813;-72
2023/04/16 03:41:52;;;;;;;;;5.00;3.00;;;;;4.30;100.00;98172.91;4846960;28;102778;-71
2023/04/16 03:44:19;;;;;;;;;4.00;3.00;;;;;4.31;100.00;98189.81;4852095;28;102305;-71
2023/04/16 03:46:46;;;;;;;;;5.25;2.25;;;;;4.33;100.00;98182.44;4849217;28;103204;-71
2023/04/16 03:49:13;;;;;;;;;7.00;3.50;;;;;4.32;100.00;98183.47;4850745;28;101640;-71
2023/04/16 03:51:40;;;;;;;;;3.75;3.00;;;;;4.25;100.00;98177.94;4843732;28;101897;-72
2023/04/16 03:54:07;;;;;;;;;2.25;2.25;;;;;4.25;100.00;98169.06;4850121;28;101634;-71
2023/04/16 03:56:34;;;;;;;;;4.00;2.25;;;;;4.39;100.00;98185.25;4851452;28;103487;-71
2023/04/16 03:59:01;;;;;;;;;2.00;1.00;;;;;4.43;100.00;98185.75;4856168;28;102066;-71
2023/04/16 04:01:28;;;;;;;;;2.75;1.50;;;;;4.46;100.00;98191.59;4848862;28;101372;-71
2023/04/16 04:03:55;;;;;;;;;1.25;1.25;;;;;4.48;100.00;98189.59;4851288;28;102773;-71
2023/04/16 04:06:22;;;;;;;;;2.75;2.00;;;;;4.49;100.00;98193.94;4851470;28;103193;-71
2023/04/16 04:08:49;;;;;;;;;4.25;4.00;;;;;4.54;100.00;98205.97;4851326;28;101870;-71
2023/04/16 04:11:16;;;;;;;;;6.00;6.00;;;;;4.54;100.00;98193.41;4849973;28;101968;-72
2023/04/16 04:13:43;;;;;;;;;9.00;7.75;;;;;4.60;100.00;98199.91;4851364;28;101874;-72
2023/04/16 04:16:10;;;;;;;;;5.00;3.75;;;;;4.67;100.00;98209.78;4851096;28;103425;-72
2023/04/16 04:18:37;;;;;;;;;4.75;4.75;;;;;4.69;100.00;98201.53;4855318;28;102125;-72
2023/04/16 04:21:08;;;;;;;;;4.00;3.75;;;;;4.80;100.00;98211.88;4853470;28;101730;-72
2023/04/16 04:23:35;;;;;;;;;7.25;7.00;;;;;4.85;100.00;98214.88;4850639;28;101995;-72
2023/04/16 04:26:04;;;;;;;;;1.25;1.25;;;;;4.86;100.00;98216.56;4850921;28;108039;-72
2023/04/16 04:28:32;;;;;;;;;2.00;1.00;;;;;4.94;100.00;98222.72;4852763;28;101513;-72
2023/04/16 04:31:00;;;;;;;;;1.75;1.75;;;;;5.00;100.00;98226.50;4854575;28;101594;-72
2023/04/16 04:33:28;;;;;;;;;3.00;2.00;;;;;5.03;100.00;98228.84;4848611;28;101781;-72
2023/04/16 04:35:54;;;;;;;;;3.75;3.75;;;;;5.11;100.00;98242.22;4851337;28;103580;-72
2023/04/16 04:38:24;;;;;;;;;4.25;3.75;;;;;5.11;100.00;98225.28;4851174;28;101617;-72
2023/04/16 04:40:51;;;;;;;;;2.00;1.25;;;;;5.20;100.00;98243.00;4852490;28;102039;-72
2023/04/16 04:43:21;;;;;;;;;2.25;1.75;;;;;5.22;100.00;98247.16;4848302;28;101706;-72
2023/04/16 04:45:48;;;;;;;;;5.00;2.75;;;;;5.28;100.00;98245.63;4847610;28;103501;-72
2023/04/16 04:48:15;;;;;;;;;2.50;2.50;;;;;5.32;100.00;98253.13;4854688;28;101588;-72
2023/04/16 04:50:44;;;;;;;;;3.00;2.75;;;;;5.37;100.00;98255.28;4854703;28;102013;-72
2023/04/16 04:53:13;;;;;;;;;5.25;3.50;;;;;5.42;100.00;98266.31;4845681;28;101815;-72
2023/04/16 04:55:40;;;;;;;;;5.00;3.25;;;;;5.47;100.00;98257.75;4846915;28;103539;-72
2023/04/16 04:58:07;;;;;;;;;2.00;2.00;;;;;5.47;100.00;98266.63;4851819;28;101593;-72
2023/04/16 05:00:35;;;;;;;;;4.75;3.00;;;;;5.48;100.00;98262.94;4855872;28;101552;-72
2023/04/16 05:03:04;;;;;;;;;5.00;5.00;;;;;5.56;100.00;98264.72;4854925;28;101741;-71
2023/04/16 05:05:31;;;;;;;;;5.00;1.75;;;;;5.61;100.00;98265.03;4851941;28;108123;-72
2023/04/16 05:07:58;;;;;;;;;2.00;2.00;;;;;5.68;100.00;98269.50;4849854;28;101923;-72
2023/04/16 05:10:26;;;;;;;;;2.50;2.00;;;;;5.74;100.00;98271.47;4851124;28;101777;-72
2023/04/16 05:12:53;;;;;;;;;1.50;1.25;;;;;5.81;100.00;98268.91;4852307;28;102136;-71
2023/04/16 05:15:20;;;;;;;;;2.25;2.25;;;;;5.84;100.00;98268.56;4848410;28;103385;-71
2023/04/16 05:17:47;;;;;;;;;2.25;2.00;;;;;5.92;100.00;98281.94;4852241;28;101833;-72
2023/04/16 05:20:14;;;;;;;;;3.50;3.50;;;;;5.94;100.00;98281.78;4852484;28;101621;-71
2023/04/16 05:22:41;;;;;;;;;2.50;2.00;;;;;5.99;100.00;98277.50;4852760;28;102119;-71
2023/04/16 05:25:09;;;;;;;;;3.00;2.25;;;;;6.02;100.00;98285.22;4850262;28;103296;-71
2023/04/16 05:27:36;;;;;;;;;6.00;6.00;;;;;6.08;100.00;98297.09;4850991;28;101554;-71
2023/04/16 05:30:04;;;;;;;;;3.50;2.50;;;;;6.10;100.00;98290.50;4852968;28;101538;-71
2023/04/16 05:32:31;;;;;;;;;1.00;1.00;;;;;6.14;100.00;98291.81;4854491;28;101732;-71
2023/04/16 05:34:57;;;;;;;;;1.50;0.50;;;;;6.15;100.00;98282.75;4848697;28;103488;-71
2023/04/16 05:37:25;;;;;;;;;3.00;2.75;;;;;6.22;100.00;98282.84;4847017;28;101912;-72
2023/04/16 05:39:52;;;;;;;;;4.00;2.75;;;;;6.27;100.00;98281.31;4848216;28;101985;-71
2023/04/16 05:42:20;;;;;;;;;3.00;3.00;;;;;6.36;100.00;98278.53;4850988;28;101958;-71
2023/04/16 05:44:47;;;;;;;;;2.00;1.50;;;;;6.49;100.00;98284.94;4848312;28;103178;-71
2023/04/16 05:47:14;;;;;;;;;3.25;3.25;;;;;6.59;100.00;98293.59;4846693;28;101469;-74
2023/04/16 05:49:41;;;;;;;;;6.00;3.00;;;;;6.69;100.00;98290.63;4844229;28;106480;-71
2023/04/16 05:52:08;;;;;;;;;7.00;4.75;;;;;6.83;100.00;98294.34;4850207;28;101921;-71
2023/04/16 05:54:35;;;;;;;;;6.25;6.25;;;;;7.01;100.00;98295.66;4852174;28;103394;-71
2023/04/16 05:57:02;;;;;;;;;9.00;8.75;;;;;7.27;100.00;98295.16;4843512;28;101892;-71
2023/04/16 05:59:29;;;;;;;;;5.50;5.00;;;;;7.48;100.00;98303.28;4847698;28;101486;-72
2023/04/16 06:01:56;;;;;;;;;12.75;10.50;;;;;7.69;100.00;98299.81;4846967;28;105528;-72
2023/04/16 06:04:24;;;;;;;;;10.00;8.75;;;;;7.89;100.00;98314.31;4852374;28;103332;-71
2023/04/16 06:06:51;;;;;;;;;10.75;8.75;;;;;8.08;100.00;98315.53;4847367;28;101829;-72
2023/04/16 06:09:18;;;;;;;;;10.75;7.75;;;;;8.25;100.00;98321.47;4849214;28;101868;-71
2023/04/16 06:11:45;;;;;;;;;11.50;9.50;;;;;8.40;100.00;98327.66;4848507;28;101746;-70
2023/04/16 06:14:12;;;;;;;;;10.00;7.25;;;;;8.55;100.00;98328.44;4841394;28;107732;-71
2023/04/16 06:16:39;;;;;;;;;10.75;9.25;;;;;8.72;99.94;98335.19;4850367;28;101697;-71
2023/04/16 06:19:05;;;;;;;;;13.00;10.00;;;;;8.76;99.94;98293.34;4849043;28;101799;-70
2023/04/16 06:21:33;;;;;;;;;12.25;11.25;;;;;9.32;98.01;98331.03;4848482;28;102034;-71
2023/04/16 06:24:00;;;;;;;;;20.50;17.00;;;;;9.53;96.08;98333.63;4850215;28;103374;-71
2023/04/16 06:26:27;;;;;;;;;20.75;19.25;;;;;9.44;93.41;98326.72;4850081;28;101598;-70
2023/04/16 06:28:54;;;;;;;;;17.75;16.00;;;;;9.43;93.65;98337.72;4844280;28;101570;-71
2023/04/16 06:31:21;;;;;;;;;13.00;11.75;;;;;9.43;93.71;98343.09;4847236;28;101934;-71
2023/04/16 06:33:49;;;;;;;;;28.50;25.50;;;;;9.31;93.55;98350.94;4849751;28;103407;-71
2023/04/16 06:36:16;;;;;;;;;39.50;31.25;;;;;9.48;96.07;98349.56;4849163;28;102157;-72
2023/04/16 06:38:43;;;;;;;;;31.25;28.50;;;;;9.86;96.57;98339.97;4852040;28;101710;-72
2023/04/16 06:41:10;;;;;;;;;23.00;18.50;;;;;10.25;94.07;98343.84;4842894;28;103438;-71
2023/04/16 06:43:37;;;;;;;;;27.00;22.25;;;;;10.38;90.43;98345.72;4848670;28;107884;-72
2023/04/16 06:46:04;;;;;;;;;24.75;21.50;;;;;10.45;90.36;98333.03;4852654;28;101828;-71
2023/04/16 06:48:31;;;;;;;;;16.50;11.50;;;;;10.85;88.98;98339.31;4852654;28;101768;-71
2023/04/16 06:50:58;;;;;;;;;21.50;19.00;;;;;11.11;88.31;98328.44;4850331;28;101946;-71
2023/04/16 06:53:25;;;;;;;;;19.25;15.50;;;;;11.26;86.47;98330.94;4849749;28;103470;-72
2023/04/16 06:55:51;;;;;;;;;19.75;18.25;;;;;11.25;87.28;98335.50;4853022;28;101867;-71
2023/04/16 06:58:18;;;;;;;;;20.50;18.25;;;;;11.11;86.05;98333.84;4851379;28;102002;-71
2023/04/16 07:00:46;;;;;;;;;15.75;15.00;;;;;11.11;86.77;98341.97;4850284;28;101639;-70
2023/04/16 07:03:13;;;;;;;;;33.25;29.50;;;;;10.77;89.10;98342.19;4846513;28;103476;-69
2023/04/16 07:05:40;;;;;;;;;23.75;22.25;;;;;10.83;87.96;98338.66;4853216;28;101851;-71
2023/04/16 07:08:07;;;;;;;;;19.00;18.25;;;;;10.74;88.55;98344.28;4848742;28;101526;-71
2023/04/16 07:10:34;;;;;;;;;11.75;11.75;;;;;10.70;89.07;98336.81;4848565;28;101634;-70
2023/04/16 07:13:01;;;;;;;;;17.25;15.00;;;;;10.80;88.75;98344.50;4844775;28;103386;-70
2023/04/16 07:15:28;;;;;;;;;16.00;12.75;;;;;10.99;88.10;98347.19;4850566;28;101743;-71
2023/04/16 07:17:55;;;;;;;;;24.50;16.25;;;;;10.74;88.96;98349.72;4852030;28;101844;-70
2023/04/16 07:20:22;;;;;;;;;19.00;18.00;;;;;11.05;90.85;98345.50;4851851;28;101698;-71
2023/04/16 07:22:49;;;;;;;;;13.50;11.75;;;;;11.24;88.52;98355.47;4847891;28;103451;-71
2023/04/16 07:25:16;;;;;;;;;9.75;8.25;;;;;11.43;86.89;98357.31;4851469;28;102781;-71
2023/04/16 07:27:43;;;;;;;;;17.00;15.00;;;;;11.48;86.60;98362.91;4848743;28;101973;-70
2023/04/16 07:30:10;;;;;;;;;20.25;19.00;;;;;11.40;86.97;98360.44;4851588;28;101876;-70
2023/04/16 07:32:37;;;;;;;;;10.25;9.75;;;;;11.76;87.15;98361.81;4852383;28;103325;-70
2023/04/16 07:35:05;;;;;;;;;12.00;10.00;;;;;12.11;86.19;98357.72;4854376;28;101686;-71
2023/04/16 07:37:32;;;;;;;;;12.25;11.50;;;;;12.31;85.36;98358.41;4854956;28;102810;-71
2023/04/16 07:39:59;;;;;;;;;27.00;23.25;;;;;11.94;82.49;98370.06;4853541;28;101764;-70
2023/04/16 07:42:27;;;;;;;;;22.50;19.75;;;;;12.38;85.47;98367.31;4846290;28;103549;-71
2023/04/16 07:44:54;;;;;;;;;7.00;7.00;;;;;12.74;82.59;98372.06;4852184;28;101657;-70
2023/04/16 07:47:21;;;;;;;;;11.50;10.25;;;;;13.05;80.81;98373.94;4856079;28;101500;-71
2023/04/16 07:49:49;;;;;;;;;18.00;17.00;;;;;13.02;80.54;98377.06;4854577;28;104577;-71
2023/04/16 07:52:16;;;;;;;;;12.25;10.25;;;;;13.11;81.04;98385.78;4849808;28;103388;-71
2023/04/16 07:54:43;;;;;;;;;17.75;15.25;;;;;13.18;80.06;98373.00;4848565;28;101586;-71
2023/04/16 07:57:11;;;;;;;;;14.75;14.00;;;;;13.13;80.93;98383.69;4852993;28;101575;-71
2023/04/16 07:59:38;;;;;;;;;12.00;9.00;;;;;13.27;79.58;98388.78;4857825;28;102085;-72
2023/04/16 08:02:07;;;;;;;;;10.00;8.00;;;;;13.27;79.87;98386.06;4855992;28;107677;-71
2023/04/16 08:04:34;;;;;;;;;8.50;7.00;;;;;13.37;80.52;98391.00;4853166;28;101924;-71
2023/04/16 08:07:02;;;;;;;;;7.50;7.25;;;;;13.62;79.51;98399.91;4851376;28;101978;-71
2023/04/16 08:09:29;;;;;;;;;7.00;5.75;;;;;13.91;77.63;98397.53;4855013;28;101922;-71
2023/04/16 08:11:56;;;;;;;;;5.75;5.25;;;;;14.07;78.27;98394.16;4853604;28;103291;-71
2023/04/16 08:14:23;;;;;;;;;5.50;4.50;;;;;14.16;74.69;98404.50;4846960;28;101875;-71
2023/04/16 08:16:50;;;;;;;;;8.50;7.00;;;;;14.26;75.93;98393.94;4852805;28;101789;-72
2023/04/16 08:19:17;;;;;;;;;27.75;23.00;;;;;14.21;78.90;98396.50;4857034;28;101804;-72
2023/04/16 08:21:44;;;;;;;;;21.75;16.00;;;;;14.10;77.30;98397.25;4852945;28;103379;-71
2023/04/16 08:24:11;;;;;;;;;12.75;11.00;;;;;14.19;75.06;98385.00;4851165;28;101800;-71
2023/04/16 08:26:38;;;;;;;;;9.00;9.00;;;;;14.39;75.88;98397.56;4851975;28;101899;-71
2023/04/16 08:29:05;;;;;;;;;6.75;6.25;;;;;14.54;75.03;98401.53;4854398;28;102507;-72
2023/04/16 08:31:32;;;;;;;;;7.50;7.00;;;;;14.62;74.08;98400.38;4854599;28;103375;-71
2023/04/16 08:33:59;;;;;;;;;18.75;15.00;;;;;14.09;75.79;98395.63;4847662;28;101619;-71
2023/04/16 08:36:26;;;;;;;;;16.25;15.00;;;;;13.87;74.26;98405.28;4847180;28;102039;-71
2023/04/16 08:38:53;;;;;;;;;18.25;16.00;;;;;13.88;75.03;98408.81;4853641;28;101977;-71
2023/04/16 08:41:21;;;;;;;;;9.25;8.75;;;;;14.17;72.85;98398.03;4854563;28;103326;-71
2023/04/16 08:43:51;;;;;;;;;12.75;11.00;;;;;13.99;75.62;98410.81;4854932;28;101859;-71
2023/04/16 08:46:21;;;;;;;;;20.50;18.00;;;;;13.36;71.60;98406.47;4847072;28;102144;-72
2023/04/16 08:48:52;;;;;;;;;23.00;20.25;;;;;12.76;74.75;98407.13;4851431;28;101942;-71
2023/04/16 08:51:21;;;;;;;;;14.50;13.25;;;;;12.86;72.35;98411.03;4853255;28;103458;-70
2023/04/16 08:53:52;;;;;;;;;14.75;12.25;;;;;13.06;74.62;98408.16;4856016;28;101916;-71
2023/04/16 08:56:21;;;;;;;;;11.25;9.25;;;;;13.44;73.11;98412.66;4852642;28;101802;-72
2023/04/16 08:58:50;;;;;;;;;5.00;5.00;;;;;13.62;71.52;98412.69;4856090;28;101906;-72
2023/04/16 09:01:18;;;;;;;;;11.50;11.25;;;;;13.45;72.36;98401.56;4852447;28;103364;-71
2023/04/16 09:03:46;;;;;;;;;11.75;10.25;;;;;13.82;72.08;98411.38;4854445;28;101570;-71
2023/04/16 09:06:15;;;;;;;;;8.75;8.75;;;;;14.23;71.20;98413.41;4865254;28;101694;-69
2023/04/16 09:08:46;;;;;;;;;11.50;11.25;;;;;13.88;69.54;98428.69;4848104;28;101848;-71
2023/04/16 09:11:13;;;;;;;;;23.50;22.25;;;;;13.35;70.05;98423.81;4852771;28;103392;-70
2023/04/16 09:13:40;;;;;;;;;16.00;16.00;;;;;13.57;69.51;98429.66;4853753;28;101646;-69
2023/04/16 09:16:08;;;;;;;;;16.25;15.00;;;;;13.47;70.53;98429.31;4850462;28;101652;-70
2023/04/16 09:18:35;;;;;;;;;15.75;15.75;;;;;13.43;68.59;98419.13;4852983;28;101663;-71
2023/04/16 09:21:03;;;;;;;;;19.00;17.00;;;;;13.00;67.70;98421.78;4847247;28;103408;-71
2023/04/16 09:23:30;;;;;;;;;16.50;15.00;;;;;12.37;72.06;98425.34;4851161;28;101662;-71
2023/04/16 09:25:58;;;;;;;;;17.25;15.75;;;;;12.34;71.51;98417.59;4851557;28;101604;-70
2023/04/16 09:28:42;;;;;;;;;14.00;13.00;;;;;12.49;70.26;98420.88;4849493;28;101650;-71
2023/04/16 09:31:12;;;;;;;;;15.75;14.25;;;;;12.36;70.01;98420.13;4849338;28;108070;-71
2023/04/16 09:33:39;;;;;;;;;12.50;12.50;;;;;12.52;67.94;98425.00;4855834;28;101515;-71
2023/04/16 09:36:06;;;;;;;;;11.00;11.00;;;;;12.82;67.93;98427.97;4853563;28;101877;-72
2023/04/16 09:38:50;;;;;;;;;14.75;14.00;;;;;12.83;65.68;98435.06;4850054;28;101624;-71
2023/04/16 09:41:18;;;;;;;;;10.75;9.50;;;;;13.07;66.04;98428.81;4851085;28;107855;-71
2023/04/16 09:43:58;;;;;;;;;12.25;11.75;;;;;13.53;67.41;98427.59;4854598;28;102966;-71
2023/04/16 09:46:39;;;;;;;;;10.25;8.50;;;;;14.05;65.94;98424.28;4851474;28;103163;-70
2023/04/16 09:49:12;;;;;;;;;7.25;6.25;;;;;14.67;65.62;98414.94;4847950;28;101584;-72
2023/04/16 09:51:44;;;;;;;;;8.00;8.00;;;;;14.73;62.97;98408.56;4849920;28;107818;-71
2023/04/16 09:54:11;;;;;;;;;10.00;9.50;;;;;15.33;64.97;98411.16;4849801;28;101857;-71
2023/04/16 09:56:41;;;;;;;;;21.50;18.75;;;;;14.63;64.46;98415.63;4854331;28;101625;-71
2023/04/16 09:59:15;;;;;;;;;27.25;25.50;;;;;14.68;70.40;98426.63;4850106;28;101909;-71
2023/04/16 10:01:44;;;;;;;;;23.00;22.75;;;;;13.77;68.26;98424.84;4852130;28;108323;-71
2023/04/16 10:04:11;;;;;;;;;21.25;19.50;;;;;13.47;68.40;98407.59;4851291;28;101861;-71
2023/04/16 10:06:38;;;;;;;;;25.75;21.00;;;;;13.54;70.60;98426.56;4856060;28;102339;-71
2023/04/16 10:09:09;;;;;;;;;21.50;19.75;;;;;13.22;69.16;98418.50;4854720;28;101604;-70
2023/04/16 10:11:37;;;;;;;;;22.50;22.50;;;;;13.32;70.26;98424.25;4850399;28;107991;-72
2023/04/16 10:14:04;;;;;;;;;23.00;20.75;;;;;13.26;67.50;98422.41;4852373;28;101894;-72
2023/04/16 10:16:32;;;;;;;;;21.50;18.00;;;;;13.56;70.34;98427.16;4850160;28;101802;-72
2023/04/16 10:18:59;;;;;;;;;20.00;19.25;;;;;13.66;68.67;98430.19;4849498;28;101731;-72
2023/04/16 10:21:32;;;;;;;;;34.00;30.50;;;;;13.10;67.48;98411.28;4847780;28;103359;-71
2023/04/16 10:24:00;;;;;;;;;41.25;34.50;;;;;12.83;67.44;98432.34;4848161;28;101915;-71
2023/04/16 10:26:29;;;;;;;;;41.50;36.00;;;;;12.61;68.27;98436.47;4847677;28;102153;-70
2023/04/16 10:28:57;;;;;;;;;31.00;27.50;;;;;12.65;67.86;98438.53;4851747;28;102594;-70
2023/04/16 10:31:26;;;;;;;;;14.25;14.25;;;;;12.73;67.33;98437.44;4850342;28;106097;-71
2023/04/16 10:33:55;;;;;;;;;15.25;13.75;;;;;12.70;65.75;98438.69;4870934;28;102675;-71
2023/04/16 10:36:25;;;;;;;;;14.00;14.00;;;;;12.81;64.94;98439.88;4854611;28;101840;-72
2023/04/16 10:38:57;;;;;;;;;14.25;13.25;;;;;13.08;64.04;98444.06;4851248;28;102045;-71
2023/04/16 10:41:25;;;;;;;;;21.00;19.25;;;;;13.02;66.08;98454.94;4846561;28;103529;-70
2023/04/16 10:44:03;;;;;;;;;13.25;13.00;;;;;13.14;64.09;98440.50;4847708;28;101854;-71
2023/04/16 10:46:37;;;;;;;;;9.25;9.25;;;;;13.42;63.69;98448.16;4852271;28;101934;-70
2023/04/16 10:49:18;;;;;;;;;7.25;5.75;;;;;13.71;62.90;98450.19;4853568;28;102099;-71
2023/04/16 10:51:58;;;;;;;;;6.00;5.25;;;;;13.95;62.16;98447.66;4848035;28;107981;-71
2023/04/16 10:54:31;;;;;;;;;6.00;5.25;;;;;14.13;61.93;98455.81;4848958;28;101933;-71
2023/04/16 10:57:03;;;;;;;;;4.00;3.00;;;;;14.22;61.57;98443.56;4847747;28;101590;-70
2023/04/16 10:59:33;;;;;;;;;2.00;2.00;;;;;14.44;63.71;98446.66;4853717;28;102725;-70
2023/04/16 11:02:07;;;;;;;;;2.00;2.00;;;;;14.59;61.47;98445.19;4844486;28;103395;-70
2023/04/16 11:04:37;;;;;;;;;6.00;5.00;;;;;14.62;61.68;98430.28;4874730;28;101865;-70
2023/04/16 11:07:10;;;;;;;;;11.00;10.00;;;;;14.53;59.25;98457.00;4851212;28;101796;-70
2023/04/16 11:09:46;;;;;;;;;6.00;6.00;;;;;14.86;62.04;98453.78;4850254;28;101624;-70
2023/04/16 11:12:15;;;;;;;;;6.50;5.50;;;;;15.12;60.80;98444.41;4842552;28;108306;-70
2023/04/16 11:14:42;;;;;;;;;2.67;2.33;;;;;15.33;60.55;98454.75;4852631;28;101903;-70
2023/04/16 11:17:09;;;;;;;;;4.33;3.00;;;;;15.50;58.99;98452.13;4853824;28;101568;-71
2023/04/16 11:19:37;;;;;;;;;5.00;4.00;;;;;15.65;57.69;98457.16;4852877;28;101929;-71
2023/04/16 11:22:04;;;;;;;;;4.67;4.00;;;;;15.72;56.79;98455.97;4843198;28;103540;-72
2023/04/16 11:24:32;;;;;;;;;3.00;3.00;;;;;15.86;56.51;98445.66;4848455;28;102738;-69